createdAt,value
2019-05-04T00:01:29.495Z,10.60
2019-05-04T00:04:00.800Z,10.60
2019-05-04T00:06:31.797Z,10.70
2019-05-04T00:09:04.378Z,10.60
2019-05-04T00:11:36.117Z,10.70
2019-05-04T00:14:07.577Z,10.70
2019-05-04T00:16:39.166Z,10.70
2019-05-04T00:19:10.508Z,10.60
2019-05-04T00:21:41.482Z,10.70
2019-05-04T00:24:14.794Z,10.70
2019-05-04T00:26:45.901Z,10.60
2019-05-04T00:29:17.496Z,10.60
2019-05-04T00:31:50.756Z,10.60
2019-05-04T00:34:31.794Z,10.70
2019-05-04T00:37:08.187Z,10.70
2019-05-04T00:39:38.364Z,10.70
2019-05-04T00:42:10.051Z,10.70
2019-05-04T00:44:40.681Z,10.60
2019-05-04T00:47:12.178Z,10.60
2019-05-04T00:49:44.916Z,10.70
2019-05-04T00:52:15.974Z,10.70
2019-05-04T00:54:47.544Z,10.60
2019-05-04T00:57:19.425Z,10.60
2019-05-04T00:59:50.424Z,10.60
2019-05-04T01:02:36.319Z,10.60
2019-05-04T01:05:11.803Z,10.60
2019-05-04T01:07:44.653Z,10.60
2019-05-04T01:10:17.359Z,10.60
2019-05-04T01:12:49.060Z,10.50
2019-05-04T01:15:20.645Z,10.50
2019-05-04T01:17:51.569Z,10.60
2019-05-04T01:20:22.730Z,10.50
2019-05-04T01:22:54.896Z,10.50
2019-05-04T01:25:26.308Z,10.50
2019-05-04T01:27:57.553Z,10.50
2019-05-04T01:30:29.145Z,10.50
2019-05-04T01:33:00.666Z,10.40
2019-05-04T01:35:31.989Z,10.40
2019-05-04T01:38:21.524Z,10.50
2019-05-04T01:40:55.701Z,10.40
2019-05-04T01:43:26.398Z,10.50
2019-05-04T01:45:58.919Z,10.40
2019-05-04T01:48:30.163Z,10.40
2019-05-04T01:51:01.103Z,10.40
2019-05-04T01:53:35.407Z,10.30
2019-05-04T01:56:15.527Z,10.30
2019-05-04T01:59:17.571Z,10.30
2019-05-04T02:01:48.863Z,10.30
2019-05-04T02:04:20.987Z,10.40
2019-05-04T02:06:52.290Z,10.30
2019-05-04T02:09:25.157Z,10.20
2019-05-04T02:11:56.532Z,10.20
2019-05-04T02:14:27.553Z,10.20
2019-05-04T02:16:59.107Z,10.10
2019-05-04T02:19:30.997Z,10.10
2019-05-04T02:22:07.344Z,10.00
2019-05-04T02:24:38.596Z,9.90
2019-05-04T02:27:35.287Z,9.90
2019-05-04T02:30:16.387Z,9.80
2019-05-04T02:32:48.023Z,9.90
2019-05-04T02:35:19.336Z,9.80
2019-05-04T02:38:07.565Z,9.90
2019-05-04T02:40:32.790Z,9.90
2019-05-04T02:43:01.279Z,9.80
2019-05-04T02:45:36.101Z,9.80
2019-05-04T02:48:11.487Z,9.80
2019-05-04T02:50:55.765Z,9.70
2019-05-04T02:53:26.143Z,9.70
2019-05-04T02:55:57.595Z,9.80
2019-05-04T02:58:37.679Z,9.70
2019-05-04T03:01:01.694Z,9.80
2019-05-04T03:03:35.485Z,9.80
2019-05-04T03:06:06.585Z,9.70
2019-05-04T03:08:38.769Z,9.80
2019-05-04T03:11:10.382Z,9.80
2019-05-04T03:13:41.679Z,9.80
2019-05-04T03:16:15.221Z,9.80
2019-05-04T03:18:48.709Z,9.80
2019-05-04T03:21:30.378Z,9.80
2019-05-04T03:24:05.740Z,9.80
2019-05-04T03:26:37.217Z,9.80
2019-05-04T03:29:09.229Z,9.80
2019-05-04T03:31:40.241Z,9.70
2019-05-04T03:34:36.717Z,9.80
2019-05-04T03:36:49.022Z,9.80
2019-05-04T03:39:18.002Z,9.80
2019-05-04T03:41:49.446Z,9.80
2019-05-04T03:44:21.328Z,9.80
2019-05-04T03:47:09.061Z,9.70
2019-05-04T03:49:54.956Z,9.80
2019-05-04T03:52:36.982Z,9.80
2019-05-04T03:55:09.919Z,9.80
2019-05-04T03:57:41.257Z,9.80
2019-05-04T04:00:16.060Z,9.80
2019-05-04T04:02:46.979Z,9.80
2019-05-04T04:05:17.937Z,9.80
2019-05-04T04:07:49.189Z,9.80
2019-05-04T04:10:20.454Z,9.80
2019-05-04T04:12:51.682Z,9.90
2019-05-04T04:15:26.165Z,9.80
2019-05-04T04:18:21.174Z,9.80
2019-05-04T04:21:15.585Z,9.80
2019-05-04T04:24:06.254Z,9.90
2019-05-04T04:26:46.214Z,9.80
2019-05-04T04:29:20.704Z,9.80
2019-05-04T04:31:51.682Z,9.80
2019-05-04T04:34:26.016Z,9.80
2019-05-04T04:36:56.915Z,9.80
2019-05-04T04:39:34.672Z,9.90
2019-05-04T04:42:00.981Z,10.00
2019-05-04T04:44:35.793Z,9.90
2019-05-04T04:47:06.659Z,9.90
2019-05-04T04:49:37.754Z,9.80
2019-05-04T04:52:10.390Z,9.90
2019-05-04T04:54:41.977Z,9.90
2019-05-04T04:57:19.586Z,10.00
2019-05-04T04:59:57.360Z,9.90
2019-05-04T05:02:42.035Z,9.90
2019-05-04T05:05:01.374Z,9.90
2019-05-04T05:07:35.182Z,9.90
2019-05-04T05:10:06.284Z,9.90
2019-05-04T05:12:38.020Z,9.80
2019-05-04T05:15:09.532Z,9.80
2019-05-04T05:17:41.471Z,9.90
2019-05-04T05:20:37.878Z,9.90
2019-05-04T05:23:09.256Z,9.90
2019-05-04T05:25:40.783Z,9.80
2019-05-04T05:28:11.585Z,9.90
2019-05-04T05:31:00.783Z,9.90
2019-05-04T05:33:35.277Z,9.80
2019-05-04T05:36:10.205Z,9.80
2019-05-04T05:38:45.453Z,9.80
2019-05-04T05:41:20.631Z,9.90
2019-05-04T05:43:57.451Z,9.90
2019-05-04T05:46:36.443Z,9.90
2019-05-04T05:49:36.098Z,9.90
2019-05-04T05:52:15.225Z,9.90
2019-05-04T05:55:05.201Z,9.90
2019-05-04T05:57:50.431Z,9.80
2019-05-04T06:00:29.320Z,9.90
2019-05-04T06:03:32.103Z,9.80
2019-05-04T06:06:02.441Z,9.90
2019-05-04T06:08:34.491Z,9.90
2019-05-04T06:11:08.332Z,10.00
2019-05-04T06:13:51.012Z,10.00
2019-05-04T06:16:40.832Z,10.10
2019-05-04T06:19:19.126Z,10.10
2019-05-04T06:21:58.161Z,10.20
2019-05-04T06:24:37.063Z,10.10
2019-05-04T06:27:27.279Z,10.10
2019-05-04T06:30:05.017Z,10.10
2019-05-04T06:32:38.671Z,10.10
2019-05-04T06:35:18.256Z,10.00
2019-05-04T06:38:10.403Z,10.00
2019-05-04T06:41:00.067Z,10.10
2019-05-04T06:43:55.771Z,10.10
2019-05-04T06:46:19.075Z,10.10
2019-05-04T06:48:50.757Z,10.20
2019-05-04T06:51:39.646Z,10.20
2019-05-04T06:54:31.892Z,10.20
2019-05-04T06:57:12.935Z,10.20
2019-05-04T06:59:41.442Z,10.30
2019-05-04T07:02:12.764Z,10.40
2019-05-04T07:04:45.393Z,10.30
2019-05-04T07:07:21.660Z,10.40
2019-05-04T07:09:50.299Z,10.30
2019-05-04T07:12:28.150Z,10.10
2019-05-04T07:14:55.390Z,10.10
2019-05-04T07:17:26.153Z,9.30
2019-05-04T07:20:00.454Z,8.90
2019-05-04T07:22:39.441Z,8.00
2019-05-04T07:25:09.247Z,7.30
2019-05-04T07:27:39.259Z,7.10
2019-05-04T07:30:10.402Z,6.80
2019-05-04T07:32:41.687Z,6.50
2019-05-04T07:35:32.041Z,6.40
2019-05-04T07:38:12.337Z,6.20
2019-05-04T07:40:45.302Z,6.30
2019-05-04T07:43:17.417Z,6.10
2019-05-04T07:45:48.842Z,6.00
2019-05-04T07:48:20.432Z,5.80
2019-05-04T07:50:51.839Z,5.70
2019-05-04T07:53:25.061Z,5.70
2019-05-04T07:55:56.967Z,5.60
2019-05-04T07:58:28.608Z,5.60
2019-05-04T08:01:00.263Z,5.60
2019-05-04T08:03:32.174Z,5.60
2019-05-04T08:06:15.657Z,5.60
2019-05-04T08:08:57.259Z,5.60
2019-05-04T08:11:29.329Z,5.70
2019-05-04T08:14:05.899Z,5.60
2019-05-04T08:16:35.318Z,5.60
2019-05-04T08:19:06.341Z,5.30
2019-05-04T08:21:41.873Z,5.30
2019-05-04T08:24:11.357Z,5.40
2019-05-04T08:26:44.550Z,5.30
2019-05-04T08:29:23.492Z,5.20
2019-05-04T08:31:50.315Z,5.20
2019-05-04T08:34:23.793Z,5.30
2019-05-04T08:36:55.687Z,5.20
2019-05-04T08:39:29.190Z,5.20
2019-05-04T08:42:06.161Z,5.20
2019-05-04T08:44:35.113Z,5.20
2019-05-04T08:47:18.451Z,5.30
2019-05-04T08:49:50.485Z,5.40
2019-05-04T08:52:26.947Z,5.40
2019-05-04T08:55:00.449Z,5.40
2019-05-04T08:57:40.742Z,5.40
2019-05-04T09:00:12.123Z,5.60
2019-05-04T09:02:51.853Z,5.60
2019-05-04T09:05:28.374Z,5.60
2019-05-04T09:07:58.360Z,5.60
2019-05-04T09:10:30.385Z,5.60
2019-05-04T09:13:04.241Z,5.50
2019-05-04T09:15:34.794Z,5.70
2019-05-04T09:18:05.514Z,5.50
2019-05-04T09:20:38.418Z,5.50
2019-05-04T09:23:10.459Z,5.50
2019-05-04T09:25:42.130Z,5.50
2019-05-04T09:28:15.622Z,5.70
2019-05-04T09:30:54.478Z,5.70
2019-05-04T09:33:29.667Z,5.50
2019-05-04T09:36:03.927Z,5.30
2019-05-04T09:38:27.271Z,5.30
2019-05-04T09:41:01.065Z,5.30
2019-05-04T09:43:36.257Z,5.30
2019-05-04T09:46:10.221Z,5.20
2019-05-04T09:48:39.944Z,5.20
2019-05-04T09:51:17.787Z,5.30
2019-05-04T09:53:46.275Z,5.40
2019-05-04T09:56:20.288Z,5.70
2019-05-04T09:58:50.729Z,5.60
2019-05-04T10:01:22.036Z,5.50
2019-05-04T10:03:53.591Z,5.50
2019-05-04T10:06:30.381Z,5.50
2019-05-04T10:08:58.943Z,5.40
2019-05-04T10:11:58.120Z,5.30
2019-05-04T10:15:03.338Z,5.30
2019-05-04T10:17:52.402Z,5.40
2019-05-04T10:20:24.778Z,5.40
2019-05-04T10:22:56.544Z,5.40
2019-05-04T10:25:28.156Z,5.50
2019-05-04T10:28:00.057Z,5.50
2019-05-04T10:30:31.926Z,5.40
2019-05-04T10:33:05.101Z,5.40
2019-05-04T10:35:36.814Z,5.00
2019-05-04T10:38:08.074Z,5.10
2019-05-04T10:40:40.235Z,5.10
2019-05-04T10:43:11.513Z,5.20
2019-05-04T10:45:44.406Z,5.40
2019-05-04T10:48:16.022Z,5.50
2019-05-04T10:50:47.691Z,5.40
2019-05-04T10:53:18.863Z,5.00
2019-05-04T10:55:50.678Z,5.10
2019-05-04T10:58:22.244Z,5.20
2019-05-04T11:00:54.786Z,5.40
2019-05-04T11:03:26.137Z,5.60
2019-05-04T11:05:57.891Z,5.40
2019-05-04T11:08:29.195Z,5.50
2019-05-04T11:11:00.747Z,5.60
2019-05-04T11:13:32.357Z,5.60
2019-05-04T11:16:04.049Z,5.60
2019-05-04T11:18:35.964Z,5.80
2019-05-04T11:21:07.599Z,5.70
2019-05-04T11:23:38.696Z,5.60
2019-05-04T11:26:20.133Z,5.60
2019-05-04T11:28:54.922Z,5.80
2019-05-04T11:31:26.935Z,5.80
2019-05-04T11:33:58.356Z,5.70
2019-05-04T11:36:29.440Z,5.70
2019-05-04T11:39:01.429Z,5.70
2019-05-04T11:41:35.143Z,5.70
2019-05-04T11:44:06.473Z,5.80
2019-05-04T11:46:37.529Z,5.80
2019-05-04T11:49:09.269Z,5.70
2019-05-04T11:51:40.819Z,5.90
2019-05-04T11:54:12.082Z,5.90
2019-05-04T11:56:45.102Z,5.90
2019-05-04T11:59:16.243Z,5.70
2019-05-04T12:01:47.653Z,5.70
2019-05-04T12:04:37.837Z,5.60
2019-05-04T12:07:27.982Z,5.40
2019-05-04T12:10:04.437Z,5.30
2019-05-04T12:12:35.637Z,5.70
2019-05-04T12:15:07.309Z,5.60
2019-05-04T12:17:39.028Z,5.80
2019-05-04T12:20:11.831Z,5.90
2019-05-04T12:22:44.782Z,5.70
2019-05-04T12:25:15.663Z,6.00
2019-05-04T12:27:47.087Z,5.80
2019-05-04T12:30:18.424Z,5.90
2019-05-04T12:32:49.515Z,5.80
2019-05-04T12:35:20.785Z,5.90
2019-05-04T12:37:52.279Z,6.00
2019-05-04T12:40:24.206Z,6.10
2019-05-04T12:42:56.261Z,6.20
2019-05-04T12:45:28.267Z,6.40
2019-05-04T12:47:59.959Z,6.90
2019-05-04T12:50:31.855Z,6.80
2019-05-04T12:53:03.450Z,6.90
2019-05-04T12:55:35.096Z,6.90
2019-05-04T12:58:06.663Z,6.90
2019-05-04T13:00:37.688Z,6.60
2019-05-04T13:03:09.270Z,6.80
2019-05-04T13:05:40.988Z,7.10
2019-05-04T13:08:11.961Z,7.30
2019-05-04T13:10:44.765Z,7.50
2019-05-04T13:13:15.681Z,7.30
2019-05-04T13:15:47.387Z,7.10
2019-05-04T13:18:54.917Z,7.40
2019-05-04T13:21:26.616Z,7.70
2019-05-04T13:23:58.329Z,7.80
2019-05-04T13:26:29.895Z,7.60
2019-05-04T13:29:02.938Z,7.30
2019-05-04T13:31:35.435Z,7.70
2019-05-04T13:34:08.740Z,7.70
2019-05-04T13:36:40.040Z,7.70
2019-05-04T13:39:11.734Z,7.80
2019-05-04T13:41:44.639Z,7.80
2019-05-04T13:44:28.561Z,8.00
2019-05-04T13:46:49.188Z,8.20
2019-05-04T13:49:19.925Z,8.20
2019-05-04T13:51:51.293Z,8.00
2019-05-04T13:54:32.595Z,8.00
2019-05-04T13:57:18.091Z,8.10
2019-05-04T14:00:15.297Z,7.90
2019-05-04T14:03:10.655Z,8.30
2019-05-04T14:05:44.480Z,8.40
2019-05-04T14:08:15.426Z,8.30
2019-05-04T14:10:47.122Z,8.20
2019-05-04T14:13:18.782Z,8.30
2019-05-04T14:15:50.354Z,8.20
2019-05-04T14:18:21.773Z,8.20
2019-05-04T14:20:54.918Z,8.00
2019-05-04T14:23:26.313Z,7.90
2019-05-04T14:25:57.609Z,7.90
2019-05-04T14:28:29.283Z,7.80
2019-05-04T14:31:00.309Z,8.00
2019-05-04T14:33:32.195Z,8.00
2019-05-04T14:36:04.604Z,7.90
2019-05-04T14:38:36.320Z,8.00
2019-05-04T14:41:07.364Z,8.10
2019-05-04T14:43:41.226Z,8.20
2019-05-04T14:46:31.728Z,8.30
2019-05-04T14:49:05.140Z,8.40
2019-05-04T14:51:36.546Z,8.30
2019-05-04T14:54:08.637Z,8.20
2019-05-04T14:56:40.442Z,8.10
2019-05-04T14:59:12.019Z,8.10
2019-05-04T15:01:45.120Z,8.40
2019-05-04T15:04:16.560Z,8.40
2019-05-04T15:06:48.605Z,8.10
2019-05-04T15:09:20.665Z,8.40
2019-05-04T15:11:52.407Z,8.50
2019-05-04T15:14:26.894Z,8.40
2019-05-04T15:16:57.123Z,8.30
2019-05-04T15:19:50.068Z,8.50
2019-05-04T15:22:21.115Z,8.60
2019-05-04T15:24:54.596Z,8.50
2019-05-04T15:27:25.579Z,8.50
2019-05-04T15:29:57.477Z,8.70
2019-05-04T15:32:29.361Z,8.80
2019-05-04T15:35:00.910Z,8.70
2019-05-04T15:37:32.236Z,8.80
2019-05-04T15:40:04.429Z,8.70
2019-05-04T15:42:37.241Z,8.60
2019-05-04T15:45:09.612Z,8.90
2019-05-04T15:47:41.500Z,9.10
2019-05-04T15:50:18.574Z,9.20
2019-05-04T15:53:17.591Z,8.90
2019-05-04T15:56:02.404Z,9.00
2019-05-04T15:58:41.523Z,9.00
2019-05-04T16:01:14.285Z,9.30
2019-05-04T16:03:45.628Z,9.30
2019-05-04T16:06:16.961Z,9.30
2019-05-04T16:08:48.063Z,9.50
2019-05-04T16:11:19.964Z,9.50
2019-05-04T16:13:51.028Z,9.60
2019-05-04T16:16:22.020Z,9.30
2019-05-04T16:18:53.892Z,9.20
2019-05-04T16:21:25.875Z,9.10
2019-05-04T16:23:57.501Z,9.10
2019-05-04T16:26:29.300Z,9.00
2019-05-04T16:29:00.253Z,9.00
2019-05-04T16:31:31.343Z,9.30
2019-05-04T16:34:04.965Z,9.30
2019-05-04T16:36:36.699Z,9.30
2019-05-04T16:39:09.809Z,9.00
2019-05-04T16:41:41.154Z,9.10
2019-05-04T16:44:12.495Z,9.10
2019-05-04T16:46:44.558Z,9.00
2019-05-04T16:49:15.957Z,9.10
2019-05-04T16:52:06.197Z,9.10
2019-05-04T16:54:37.549Z,8.90
2019-05-04T16:57:10.980Z,9.00
2019-05-04T16:59:42.458Z,9.00
2019-05-04T17:02:47.855Z,9.00
2019-05-04T17:05:24.675Z,8.90
2019-05-04T17:07:56.537Z,8.90
2019-05-04T17:10:28.069Z,8.80
2019-05-04T17:13:00.291Z,8.60
2019-05-04T17:15:32.682Z,8.40
2019-05-04T17:18:05.124Z,8.50
2019-05-04T17:20:40.439Z,8.50
2019-05-04T17:23:11.886Z,8.40
2019-05-04T17:26:04.191Z,8.30
2019-05-04T17:28:35.670Z,8.30
2019-05-04T17:31:11.910Z,8.20
2019-05-04T17:33:44.714Z,8.10
2019-05-04T17:36:17.373Z,8.30
2019-05-04T17:38:49.154Z,8.20
2019-05-04T17:41:30.085Z,8.20
2019-05-04T17:44:19.633Z,8.20
2019-05-04T17:46:54.718Z,8.00
2019-05-04T17:49:26.673Z,8.00
2019-05-04T17:51:58.350Z,8.00
2019-05-04T17:54:30.410Z,8.00
2019-05-04T17:57:02.470Z,8.00
2019-05-04T17:59:41.803Z,8.00
2019-05-04T18:02:25.844Z,7.80
2019-05-04T18:05:00.559Z,7.90
2019-05-04T18:07:34.256Z,7.90
2019-05-04T18:10:06.063Z,7.80
2019-05-04T18:13:15.232Z,7.70
2019-05-04T18:16:04.224Z,7.80
2019-05-04T18:18:37.925Z,7.70
2019-05-04T18:21:09.853Z,7.60
2019-05-04T18:23:41.267Z,7.70
2019-05-04T18:26:13.161Z,7.60
2019-05-04T18:28:45.211Z,7.70
2019-05-04T18:31:17.278Z,7.70
2019-05-04T18:33:48.951Z,7.70
2019-05-04T18:36:22.140Z,7.70
2019-05-04T18:38:54.672Z,7.60
2019-05-04T18:41:31.092Z,7.50
2019-05-04T18:44:16.764Z,7.30
2019-05-04T18:47:11.236Z,7.30
2019-05-04T18:49:45.796Z,7.20
2019-05-04T18:52:17.435Z,7.20
2019-05-04T18:54:49.723Z,7.10
2019-05-04T18:57:21.152Z,7.00
2019-05-04T18:59:54.737Z,6.90
2019-05-04T19:02:27.043Z,7.00
2019-05-04T19:04:58.794Z,6.90
2019-05-04T19:07:58.955Z,6.80
2019-05-04T19:10:21.730Z,6.80
2019-05-04T19:12:54.337Z,6.80
2019-05-04T19:15:25.870Z,6.60
2019-05-04T19:17:56.835Z,6.60
2019-05-04T19:20:28.087Z,6.50
2019-05-04T19:22:59.489Z,6.50
2019-05-04T19:25:31.527Z,6.40
2019-05-04T19:28:04.664Z,6.50
2019-05-04T19:30:36.709Z,6.50
2019-05-04T19:33:08.328Z,6.50
2019-05-04T19:35:39.933Z,6.50
2019-05-04T19:38:11.650Z,6.50
2019-05-04T19:40:44.894Z,6.40
2019-05-04T19:43:32.371Z,6.40
2019-05-04T19:46:26.330Z,6.40
2019-05-04T19:49:07.056Z,6.40
2019-05-04T19:51:39.095Z,6.30
2019-05-04T19:54:10.141Z,6.40
2019-05-04T19:56:42.309Z,6.50
2019-05-04T19:59:15.018Z,6.40
2019-05-04T20:01:46.808Z,6.20
2019-05-04T20:04:18.624Z,6.20
2019-05-04T20:07:12.013Z,6.30
2019-05-04T20:10:07.904Z,6.30
2019-05-04T20:12:44.776Z,6.30
2019-05-04T20:15:22.388Z,6.10
2019-05-04T20:17:50.661Z,6.10
2019-05-04T20:20:22.506Z,6.20
2019-05-04T20:22:54.713Z,6.10
2019-05-04T20:25:26.899Z,6.00
2019-05-04T20:27:58.546Z,6.00
2019-05-04T20:30:30.040Z,6.00
2019-05-04T20:33:02.073Z,6.10
2019-05-04T20:35:45.829Z,6.10
2019-05-04T20:38:17.240Z,6.10
2019-05-04T20:40:49.370Z,6.20
2019-05-04T20:43:21.954Z,6.10
2019-05-04T20:46:12.117Z,6.20
2019-05-04T20:49:06.198Z,6.20
2019-05-04T20:51:38.936Z,6.20
2019-05-04T20:54:10.533Z,6.20
2019-05-04T20:56:41.984Z,6.20
2019-05-04T20:59:14.728Z,6.20
2019-05-04T21:01:52.345Z,6.10
2019-05-04T21:04:48.165Z,6.00
2019-05-04T21:07:20.096Z,6.10
2019-05-04T21:09:51.697Z,6.00
2019-05-04T21:12:24.603Z,5.90
2019-05-04T21:14:56.345Z,6.00
2019-05-04T21:18:00.834Z,5.90
2019-05-04T21:20:40.908Z,5.90
2019-05-04T21:23:12.207Z,5.80
2019-05-04T21:25:44.620Z,5.80
2019-05-04T21:28:16.095Z,5.80
2019-05-04T21:30:47.874Z,5.80
2019-05-04T21:33:19.274Z,5.70
2019-05-04T21:35:50.722Z,5.70
2019-05-04T21:38:21.808Z,5.70
2019-05-04T21:40:54.762Z,5.80
2019-05-04T21:43:28.638Z,5.60
2019-05-04T21:46:19.168Z,5.60
2019-05-04T21:49:19.600Z,5.70
2019-05-04T21:51:51.652Z,5.60
2019-05-04T21:54:22.971Z,5.60
2019-05-04T21:56:54.526Z,5.70
2019-05-04T21:59:26.605Z,5.70
2019-05-04T22:02:06.168Z,5.80
2019-05-04T22:04:49.602Z,5.80
2019-05-04T22:07:21.482Z,5.70
2019-05-04T22:09:53.337Z,5.70
2019-05-04T22:12:24.633Z,5.70
2019-05-04T22:14:56.231Z,5.70
2019-05-04T22:17:27.870Z,5.60
2019-05-04T22:19:59.727Z,5.60
2019-05-04T22:22:31.103Z,5.70
2019-05-04T22:25:05.016Z,5.80
2019-05-04T22:27:36.274Z,5.90
2019-05-04T22:30:09.578Z,6.10
2019-05-04T22:32:41.033Z,6.00
2019-05-04T22:35:14.449Z,5.90
2019-05-04T22:37:51.013Z,6.10
2019-05-04T22:40:22.027Z,6.00
2019-05-04T22:42:54.441Z,6.00
2019-05-04T22:45:26.184Z,6.30
2019-05-04T22:47:57.775Z,6.20
2019-05-04T22:50:28.883Z,6.10
2019-05-04T22:53:05.746Z,5.90
2019-05-04T22:55:48.577Z,6.10
2019-05-04T22:58:39.004Z,6.00
2019-05-04T23:01:28.944Z,6.10
2019-05-04T23:04:04.815Z,5.90
2019-05-04T23:06:36.635Z,5.90
2019-05-04T23:09:08.443Z,5.80
2019-05-04T23:11:40.018Z,5.90
2019-05-04T23:14:11.703Z,5.70
2019-05-04T23:16:45.078Z,5.70
2019-05-04T23:19:17.409Z,5.60
2019-05-04T23:21:48.407Z,5.40
2019-05-04T23:24:19.831Z,5.20
2019-05-04T23:26:51.096Z,5.10
2019-05-04T23:29:24.341Z,5.00
2019-05-04T23:31:56.252Z,4.90
2019-05-04T23:34:27.571Z,4.90
2019-05-04T23:36:58.891Z,4.80
2019-05-04T23:39:30.551Z,4.70
2019-05-04T23:42:04.466Z,4.70
2019-05-04T23:44:36.783Z,4.70
2019-05-04T23:47:15.164Z,4.80
2019-05-04T23:49:46.816Z,4.80
2019-05-04T23:52:18.139Z,4.80
2019-05-04T23:54:49.366Z,4.90
2019-05-04T23:57:21.500Z,4.90
2019-05-04T23:59:52.829Z,4.90
